Torm Sovereign — 9V5663 — position and weather

sailwx.info

Track history (hours):
 
Tides and Currents Weather Stations Pressure Air Temp Water Temp Dewpoint Dewpoint Depression Visibility Wind Speed Wind Dir Waves Ship Positions

Torm Sovereign

Last reported at 2018-Jun-05 02:33 UTC. Time now 2018-Jun-20 20:52 UTC.
Position N 01°22' E 103°17'.
Warning: this ship's position is 15 days out of date.

Length 183 m; draft 10.7 m.

Type: Tanker. MMSI: 563034100.

Date/timePositionNaut miles runAvg speedWind from/ knotsBaromVisibWave heightAir tempDewpointWater temp
2018-Jun-05 02:33N 01°22' E 103°17'114.0
2018-Jun-05 02:29N 01°21' E 103°17'814.3
2018-Jun-05 01:54N 01°16' E 103°23'613.8
2018-Jun-05 01:28N 01°13' E 103°29'613.1
2018-Jun-05 01:00N 01°12' E 103°35'612.7
2018-Jun-05 00:30N 01°10' E 103°41'610.5
2018-Jun-04 23:59N 01°09' E 103°46'510.3
2018-Jun-04 23:30N 01°11' E 103°51'510.5
2018-Jun-04 23:00N 01°14' E 103°55'611.7
2018-Jun-04 22:29N 01°16' E 104°01'610.9
2018-Jun-04 21:57N 01°17' E 104°07'4 7.9
2018-Jun-04 21:30N 01°18' E 104°10'1 0.5
2018-Jun-04 19:03N 01°19' E 104°10'0 0.0
2018-Jun-04 15:30N 01°19' E 104°10'0 0.0
2018-Jun-04 13:15N 01°19' E 104°10'0 0.0
2018-Jun-04 12:45N 01°19' E 104°10'0 0.0
2018-Jun-04 12:21N 01°19' E 104°10'0 0.0
2018-Jun-04 11:54N 01°19' E 104°10'0 0.0
2018-Jun-04 11:21N 01°19' E 104°10'0 0.0
2018-Jun-04 10:57N 01°19' E 104°10'0 0.0
2018-Jun-04 09:36N 01°19' E 104°10'0 0.0
2018-Jun-04 09:03N 01°19' E 104°10'0 0.0
2018-Jun-04 08:33N 01°19' E 104°10'0 0.0
2018-Jun-03 21:09N 01°19' E 104°10'0 0.0
2018-Jun-03 19:54N 01°19' E 104°10'0 0.0
2018-Jun-03 17:03N 01°19' E 104°10'0 0.0
2018-Jun-03 15:03N 01°19' E 104°10'0 0.0
2018-Jun-03 13:18N 01°19' E 104°10'0 0.0
2018-Jun-03 12:51N 01°19' E 104°10'0 0.0
2018-Jun-03 12:06N 01°19' E 104°10'0 0.0
2018-Jun-03 11:03N 01°19' E 104°10'0 0.0
2018-Jun-03 03:31N 01°19' E 104°10'0 0.1
2018-Jun-03 03:30N 01°19' E 104°10'0 0.1
2018-Jun-03 02:59N 01°19' E 104°10'1 2.6
2018-Jun-03 02:30N 01°19' E 104°09'2 4.4
2018-Jun-03 01:58N 01°19' E 104°06'1 0.3
2018-Jun-02 23:52N 01°19' E 104°07'0 0.0
2018-Jun-02 23:25N 01°19' E 104°07'0 0.0
2018-Jun-02 22:43N 01°19' E 104°07'0 0.0
2018-Jun-02 22:19N 01°19' E 104°07'0 0.0
2018-Jun-02 21:55N 01°19' E 104°07'0 0.2
2018-Jun-02 21:29N 01°19' E 104°07'2 3.1
2018-Jun-02 20:57N 01°17' E 104°07'3 7.6
2018-Jun-02 20:30N 01°15' E 104°05'4 8.0
2018-Jun-02 19:59N 01°15' E 104°00'510.0
2018-Jun-02 19:30N 01°13' E 103°56'510.6
2018-Jun-02 19:01N 01°12' E 103°51'2 3.9
2018-Jun-02 18:28N 01°13' E 103°49'0 0.1
2018-Jun-02 18:00N 01°13' E 103°49'0 0.1
2018-Jun-02 17:30N 01°13' E 103°49'0 0.0
2018-Jun-02 17:00N 01°13' E 103°49'0 0.3
2018-Jun-02 16:25N 01°13' E 103°49'0 0.3
2018-Jun-02 16:00N 01°13' E 103°49'0 0.0
2018-Jun-02 15:30N 01°13' E 103°49'0 0.3
2018-Jun-02 15:00N 01°13' E 103°49'0 0.2
2018-Jun-02 14:19N 01°13' E 103°49'0 0.5
2018-Jun-02 14:00N 01°13' E 103°49'0 0.1
2018-Jun-02 13:30N 01°13' E 103°49'0 0.3
2018-Jun-02 13:00N 01°13' E 103°49'0 0.4
2018-Jun-02 12:30N 01°13' E 103°49'0 0.3
2018-Jun-02 12:00N 01°13' E 103°49'0 0.1
2018-Jun-02 11:28N 01°13' E 103°49'0 0.3
2018-Jun-02 11:00N 01°13' E 103°49'0 0.2
2018-Jun-02 10:30N 01°13' E 103°49'0 0.0
2018-Jun-02 09:48N 01°13' E 103°49'0 0.3
2018-Jun-02 09:30N 01°13' E 103°49'0 0.1
2018-Jun-02 09:00N 01°13' E 103°49'0 0.2
2018-Jun-02 08:28N 01°13' E 103°49'0 0.0
2018-Jun-02 08:00N 01°13' E 103°49'0 0.0
2018-Jun-02 07:28N 01°13' E 103°49'0 0.1
2018-Jun-02 07:00N 01°13' E 103°49'0 0.1
2018-Jun-02 06:30N 01°13' E 103°49'0 0.2
2018-Jun-02 06:00N 01°13' E 103°49'0 0.1
2018-Jun-02 05:30N 01°13' E 103°49'0 0.2
2018-Jun-02 05:00N 01°13' E 103°49'1 2.8
2018-Jun-02 04:30N 01°12' E 103°51'5 9.6
2018-Jun-02 04:01N 01°14' E 103°55'4 7.4
2018-Jun-02 03:27N 01°16' E 103°59'3 6.9
2018-Jun-02 03:00N 01°16' E 104°02'612.1
2018-Jun-02 02:29N 01°16' E 104°08'612.6
2018-Jun-02 01:59N 01°18' E 104°14'612.3
2018-Jun-02 01:31N 01°20' E 104°20'612.0
2018-Jun-02 00:58N 01°24' E 104°25'611.6
2018-Jun-02 00:30N 01°27' E 104°29'611.4
2018-Jun-02 00:00N 01°31' E 104°33'  
2018-May-27 19:06N 22°36' E 119°50'113.3
2018-May-27 19:00N 22°37' E 119°50'7811.5
2018-May-27 12:13N 23°55' E 119°55'2 9.1
2018-May-27 11:59N 23°57' E 119°55'10 9.5
2018-May-27 10:53N 24°07' E 119°60'4 9.5
2018-May-27 10:30N 24°10' E 120°02'1010.1
2018-May-27 09:30N 24°19' E 120°07'  
Track history (hours):
 
Tides and Currents Weather Stations Pressure Air Temp Water Temp Dewpoint Dewpoint Depression Visibility Wind Speed Wind Dir Waves Ship Positions

Torm Sovereign

Last reported at 2018-Jun-05 02:33 UTC. Time now 2018-Jun-20 20:52 UTC.
Position N 01°22' E 103°17'.
Warning: this ship's position is 15 days out of date.

Length 183 m; draft 10.7 m.

Type: Tanker. MMSI: 563034100.

Date/timePositionNaut miles runAvg speedWind from/ knotsBaromVisibWave heightAir tempDewpointWater temp
2018-Jun-05 02:33N 01°22' E 103°17'114.0
2018-Jun-05 02:29N 01°21' E 103°17'814.3
2018-Jun-05 01:54N 01°16' E 103°23'613.8
2018-Jun-05 01:28N 01°13' E 103°29'613.1
2018-Jun-05 01:00N 01°12' E 103°35'612.7
2018-Jun-05 00:30N 01°10' E 103°41'610.5
2018-Jun-04 23:59N 01°09' E 103°46'510.3
2018-Jun-04 23:30N 01°11' E 103°51'510.5
2018-Jun-04 23:00N 01°14' E 103°55'611.7
2018-Jun-04 22:29N 01°16' E 104°01'610.9
2018-Jun-04 21:57N 01°17' E 104°07'4 7.9
2018-Jun-04 21:30N 01°18' E 104°10'1 0.5
2018-Jun-04 19:03N 01°19' E 104°10'0 0.0
2018-Jun-04 15:30N 01°19' E 104°10'0 0.0
2018-Jun-04 13:15N 01°19' E 104°10'0 0.0
2018-Jun-04 12:45N 01°19' E 104°10'0 0.0
2018-Jun-04 12:21N 01°19' E 104°10'0 0.0
2018-Jun-04 11:54N 01°19' E 104°10'0 0.0
2018-Jun-04 11:21N 01°19' E 104°10'0 0.0
2018-Jun-04 10:57N 01°19' E 104°10'0 0.0
2018-Jun-04 09:36N 01°19' E 104°10'0 0.0
2018-Jun-04 09:03N 01°19' E 104°10'0 0.0
2018-Jun-04 08:33N 01°19' E 104°10'0 0.0
2018-Jun-03 21:09N 01°19' E 104°10'0 0.0
2018-Jun-03 19:54N 01°19' E 104°10'0 0.0
2018-Jun-03 17:03N 01°19' E 104°10'0 0.0
2018-Jun-03 15:03N 01°19' E 104°10'0 0.0
2018-Jun-03 13:18N 01°19' E 104°10'0 0.0
2018-Jun-03 12:51N 01°19' E 104°10'0 0.0
2018-Jun-03 12:06N 01°19' E 104°10'0 0.0
2018-Jun-03 11:03N 01°19' E 104°10'0 0.0
2018-Jun-03 03:31N 01°19' E 104°10'0 0.1
2018-Jun-03 03:30N 01°19' E 104°10'0 0.1
2018-Jun-03 02:59N 01°19' E 104°10'1 2.6
2018-Jun-03 02:30N 01°19' E 104°09'2 4.4
2018-Jun-03 01:58N 01°19' E 104°06'1 0.3
2018-Jun-02 23:52N 01°19' E 104°07'0 0.0
2018-Jun-02 23:25N 01°19' E 104°07'0 0.0
2018-Jun-02 22:43N 01°19' E 104°07'0 0.0
2018-Jun-02 22:19N 01°19' E 104°07'0 0.0
2018-Jun-02 21:55N 01°19' E 104°07'0 0.2
2018-Jun-02 21:29N 01°19' E 104°07'2 3.1
2018-Jun-02 20:57N 01°17' E 104°07'3 7.6
2018-Jun-02 20:30N 01°15' E 104°05'4 8.0
2018-Jun-02 19:59N 01°15' E 104°00'510.0
2018-Jun-02 19:30N 01°13' E 103°56'510.6
2018-Jun-02 19:01N 01°12' E 103°51'2 3.9
2018-Jun-02 18:28N 01°13' E 103°49'0 0.1
2018-Jun-02 18:00N 01°13' E 103°49'0 0.1
2018-Jun-02 17:30N 01°13' E 103°49'0 0.0
2018-Jun-02 17:00N 01°13' E 103°49'0 0.3
2018-Jun-02 16:25N 01°13' E 103°49'0 0.3
2018-Jun-02 16:00N 01°13' E 103°49'0 0.0
2018-Jun-02 15:30N 01°13' E 103°49'0 0.3
2018-Jun-02 15:00N 01°13' E 103°49'0 0.2
2018-Jun-02 14:19N 01°13' E 103°49'0 0.5
2018-Jun-02 14:00N 01°13' E 103°49'0 0.1
2018-Jun-02 13:30N 01°13' E 103°49'0 0.3
2018-Jun-02 13:00N 01°13' E 103°49'0 0.4
2018-Jun-02 12:30N 01°13' E 103°49'0 0.3
2018-Jun-02 12:00N 01°13' E 103°49'0 0.1
2018-Jun-02 11:28N 01°13' E 103°49'0 0.3
2018-Jun-02 11:00N 01°13' E 103°49'0 0.2
2018-Jun-02 10:30N 01°13' E 103°49'0 0.0
2018-Jun-02 09:48N 01°13' E 103°49'0 0.3
2018-Jun-02 09:30N 01°13' E 103°49'0 0.1
2018-Jun-02 09:00N 01°13' E 103°49'0 0.2
2018-Jun-02 08:28N 01°13' E 103°49'0 0.0
2018-Jun-02 08:00N 01°13' E 103°49'0 0.0
2018-Jun-02 07:28N 01°13' E 103°49'0 0.1
2018-Jun-02 07:00N 01°13' E 103°49'0 0.1
2018-Jun-02 06:30N 01°13' E 103°49'0 0.2
2018-Jun-02 06:00N 01°13' E 103°49'0 0.1
2018-Jun-02 05:30N 01°13' E 103°49'0 0.2
2018-Jun-02 05:00N 01°13' E 103°49'1 2.8
2018-Jun-02 04:30N 01°12' E 103°51'5 9.6
2018-Jun-02 04:01N 01°14' E 103°55'4 7.4
2018-Jun-02 03:27N 01°16' E 103°59'3 6.9
2018-Jun-02 03:00N 01°16' E 104°02'612.1
2018-Jun-02 02:29N 01°16' E 104°08'612.6
2018-Jun-02 01:59N 01°18' E 104°14'612.3
2018-Jun-02 01:31N 01°20' E 104°20'612.0
2018-Jun-02 00:58N 01°24' E 104°25'611.6
2018-Jun-02 00:30N 01°27' E 104°29'611.4
2018-Jun-02 00:00N 01°31' E 104°33'  
2018-May-27 19:06N 22°36' E 119°50'113.3
2018-May-27 19:00N 22°37' E 119°50'7811.5
2018-May-27 12:13N 23°55' E 119°55'2 9.1
2018-May-27 11:59N 23°57' E 119°55'10 9.5
2018-May-27 10:53N 24°07' E 119°60'4 9.5
2018-May-27 10:30N 24°10' E 120°02'1010.1
2018-May-27 09:30N 24°19' E 120°07'  

Dump ship's entire track history